createdAt,value
2022-12-19T00:00:14.816Z,50.22
2022-12-19T00:02:16.595Z,50.33
2022-12-19T00:04:19.957Z,50.34
2022-12-19T00:06:21.260Z,50.46
2022-12-19T00:08:22.584Z,50.40
2022-12-19T00:10:23.881Z,50.13
2022-12-19T00:12:25.172Z,50.28
2022-12-19T00:14:26.477Z,50.07
2022-12-19T00:16:27.795Z,50.12
2022-12-19T00:18:29.508Z,49.94
2022-12-19T00:20:30.840Z,49.43
2022-12-19T00:22:32.124Z,49.71
2022-12-19T00:24:33.454Z,49.48
2022-12-19T00:26:34.743Z,49.90
2022-12-19T00:28:36.245Z,49.36
2022-12-19T00:30:37.549Z,49.86
2022-12-19T00:32:39.168Z,49.64
2022-12-19T00:34:40.460Z,49.50
2022-12-19T00:36:41.825Z,49.72
2022-12-19T00:38:43.108Z,49.51
2022-12-19T00:40:44.654Z,49.84
2022-12-19T00:42:51.696Z,49.89
2022-12-19T00:44:54.616Z,50.34
2022-12-19T00:46:55.940Z,49.73
2022-12-19T00:48:57.224Z,50.00
2022-12-19T00:50:58.505Z,50.40
2022-12-19T00:52:59.797Z,50.61
2022-12-19T00:55:01.267Z,50.70
2022-12-19T00:57:05.108Z,50.93
2022-12-19T00:59:06.422Z,51.36
2022-12-19T01:01:07.791Z,51.36
2022-12-19T01:03:09.170Z,51.60
2022-12-19T01:05:12.344Z,51.15
2022-12-19T01:07:13.640Z,51.67
2022-12-19T01:09:14.971Z,51.59
2022-12-19T01:11:16.266Z,51.73
2022-12-19T01:13:17.553Z,51.92
2022-12-19T01:15:18.893Z,51.63
2022-12-19T01:17:20.225Z,51.85
2022-12-19T01:19:21.872Z,51.96
2022-12-19T01:21:23.160Z,51.61
2022-12-19T01:23:24.446Z,51.81
2022-12-19T01:25:25.745Z,51.31
2022-12-19T01:27:27.028Z,51.38
2022-12-19T01:29:28.312Z,51.39
2022-12-19T01:31:29.665Z,51.40
2022-12-19T01:33:30.971Z,51.49
2022-12-19T01:35:32.266Z,51.30
2022-12-19T01:37:33.552Z,51.44
2022-12-19T01:39:34.843Z,50.87
2022-12-19T01:41:37.856Z,51.02
2022-12-19T01:43:39.146Z,50.95
2022-12-19T01:45:45.815Z,50.89
2022-12-19T01:47:47.618Z,51.20
2022-12-19T01:49:51.780Z,51.22
2022-12-19T01:51:53.111Z,50.94
2022-12-19T01:53:54.409Z,51.05
2022-12-19T01:55:55.692Z,51.44
2022-12-19T01:57:57.007Z,51.41
2022-12-19T01:59:58.309Z,51.33
2022-12-19T02:01:59.825Z,51.53
2022-12-19T02:04:01.267Z,51.50
2022-12-19T02:06:02.559Z,51.35
2022-12-19T02:08:03.865Z,51.68
2022-12-19T02:10:05.168Z,51.84
2022-12-19T02:12:06.582Z,52.23
2022-12-19T02:14:07.897Z,51.85
2022-12-19T02:16:09.242Z,52.14
2022-12-19T02:18:10.567Z,52.20
2022-12-19T02:20:11.900Z,52.03
2022-12-19T02:22:18.768Z,52.18
2022-12-19T02:24:20.331Z,52.44
2022-12-19T02:26:21.641Z,52.37
2022-12-19T02:28:22.982Z,52.23
2022-12-19T02:30:26.297Z,52.66
2022-12-19T02:32:27.594Z,52.69
2022-12-19T02:34:28.926Z,52.47
2022-12-19T02:36:30.230Z,52.84
2022-12-19T02:38:34.255Z,52.53
2022-12-19T02:40:35.581Z,52.37
2022-12-19T02:42:37.126Z,52.48
2022-12-19T02:44:38.458Z,52.05
2022-12-19T02:46:40.202Z,52.19
2022-12-19T02:48:41.513Z,51.24
2022-12-19T02:50:42.854Z,50.96
2022-12-19T02:52:47.056Z,50.91
2022-12-19T02:54:48.396Z,51.12
2022-12-19T02:56:49.729Z,50.53
2022-12-19T02:58:51.066Z,50.90
2022-12-19T03:00:52.470Z,51.17
2022-12-19T03:03:00.248Z,50.67
2022-12-19T03:05:03.189Z,50.75
2022-12-19T03:07:04.485Z,50.60
2022-12-19T03:09:05.761Z,51.11
2022-12-19T03:11:07.198Z,51.38
2022-12-19T03:13:08.503Z,51.42
2022-12-19T03:15:10.114Z,51.55
2022-12-19T03:17:11.529Z,51.60
2022-12-19T03:19:12.849Z,51.63
2022-12-19T03:21:14.237Z,51.37
2022-12-19T03:23:15.905Z,51.75
2022-12-19T03:25:18.398Z,52.06
2022-12-19T03:27:19.777Z,52.45
2022-12-19T03:29:21.074Z,52.43
2022-12-19T03:31:22.545Z,52.06
2022-12-19T03:33:23.868Z,52.62
2022-12-19T03:35:25.174Z,52.88
2022-12-19T03:37:26.511Z,52.88
2022-12-19T03:39:27.893Z,53.17
2022-12-19T03:41:47.698Z,53.29
2022-12-19T03:43:49.030Z,52.77
2022-12-19T03:45:50.623Z,52.93
2022-12-19T03:47:52.069Z,53.19
2022-12-19T03:49:53.450Z,53.31
2022-12-19T03:51:59.215Z,53.05
2022-12-19T03:54:00.806Z,53.17
2022-12-19T03:56:02.088Z,52.98
2022-12-19T03:58:03.663Z,52.76
2022-12-19T04:00:04.963Z,52.70
2022-12-19T04:02:06.359Z,52.22
2022-12-19T04:04:10.508Z,51.94
2022-12-19T04:06:11.819Z,51.85
2022-12-19T04:08:13.160Z,51.95
2022-12-19T04:10:14.864Z,52.10
2022-12-19T04:12:16.181Z,51.98
2022-12-19T04:14:17.518Z,51.88
2022-12-19T04:16:18.924Z,51.42
2022-12-19T04:18:20.310Z,51.93
2022-12-19T04:20:22.092Z,51.69
2022-12-19T04:22:23.389Z,51.14
2022-12-19T04:24:24.675Z,51.49
2022-12-19T04:26:26.001Z,51.46
2022-12-19T04:28:27.345Z,51.37
2022-12-19T04:30:28.646Z,51.23
2022-12-19T04:32:30.432Z,50.84
2022-12-19T04:34:31.776Z,51.14
2022-12-19T04:36:33.075Z,51.13
2022-12-19T04:38:34.397Z,51.81
2022-12-19T04:40:40.819Z,51.65
2022-12-19T04:42:42.955Z,51.78
2022-12-19T04:44:44.320Z,51.80
2022-12-19T04:46:45.712Z,52.04
2022-12-19T04:48:47.063Z,51.70
2022-12-19T04:50:48.412Z,52.29
2022-12-19T04:52:53.229Z,52.20
2022-12-19T04:54:56.952Z,52.22
2022-12-19T04:56:58.245Z,52.62
2022-12-19T04:59:00.192Z,52.77
2022-12-19T05:01:01.503Z,52.76
2022-12-19T05:03:02.925Z,52.72
2022-12-19T05:05:04.395Z,52.99
2022-12-19T05:07:05.685Z,53.41
2022-12-19T05:09:07.008Z,53.17
2022-12-19T05:11:08.341Z,53.21
2022-12-19T05:13:09.630Z,53.02
2022-12-19T05:15:11.841Z,53.11
2022-12-19T05:17:13.143Z,53.07
2022-12-19T05:19:15.032Z,53.19
2022-12-19T05:21:16.461Z,52.88
2022-12-19T05:23:17.997Z,52.87
2022-12-19T05:25:19.340Z,53.01
2022-12-19T05:27:20.638Z,52.82
2022-12-19T05:29:21.945Z,52.57
2022-12-19T05:31:23.350Z,52.39
2022-12-19T05:33:24.683Z,52.03
2022-12-19T05:35:26.001Z,51.78
2022-12-19T05:37:27.317Z,52.17
2022-12-19T05:39:28.610Z,51.68
2022-12-19T05:41:30.469Z,51.58
2022-12-19T05:43:31.884Z,51.42
2022-12-19T05:45:33.193Z,51.16
2022-12-19T05:47:34.808Z,51.44
2022-12-19T05:49:36.145Z,51.58
2022-12-19T05:51:37.557Z,51.61
2022-12-19T05:53:38.856Z,51.32
2022-12-19T05:55:40.430Z,51.72
2022-12-19T05:57:44.401Z,51.34
2022-12-19T05:59:45.729Z,51.77
2022-12-19T06:01:47.124Z,51.71
2022-12-19T06:03:48.529Z,51.23
2022-12-19T06:05:49.878Z,51.26
2022-12-19T06:07:51.198Z,51.23
2022-12-19T06:09:52.524Z,51.41
2022-12-19T06:11:53.849Z,51.73
2022-12-19T06:13:55.605Z,51.60
2022-12-19T06:15:56.936Z,51.48
2022-12-19T06:17:58.255Z,51.69
2022-12-19T06:19:59.547Z,51.95
2022-12-19T06:22:00.879Z,52.13
2022-12-19T06:24:02.238Z,52.61
2022-12-19T06:26:03.526Z,52.59
2022-12-19T06:28:04.869Z,51.90
2022-12-19T06:30:06.175Z,52.25
2022-12-19T06:32:07.469Z,52.81
2022-12-19T06:34:10.125Z,52.84
2022-12-19T06:36:11.427Z,52.54
2022-12-19T06:38:12.737Z,53.05
2022-12-19T06:40:33.984Z,52.72
2022-12-19T06:42:35.326Z,53.43
2022-12-19T06:44:36.688Z,53.34
2022-12-19T06:46:37.977Z,53.29
2022-12-19T06:48:39.334Z,53.09
2022-12-19T06:50:40.697Z,53.09
2022-12-19T06:52:42.201Z,53.24
2022-12-19T06:54:43.811Z,52.84
2022-12-19T06:56:45.098Z,52.94
2022-12-19T06:58:46.449Z,53.10
2022-12-19T07:00:47.877Z,52.57
2022-12-19T07:02:49.280Z,52.63
2022-12-19T07:04:50.689Z,52.31
2022-12-19T07:06:52.132Z,52.48
2022-12-19T07:08:53.445Z,52.14
2022-12-19T07:10:54.948Z,52.32
2022-12-19T07:12:56.303Z,51.98
2022-12-19T07:14:57.649Z,51.99
2022-12-19T07:16:59.006Z,51.89
2022-12-19T07:19:00.310Z,51.66
2022-12-19T07:21:01.653Z,51.93
2022-12-19T07:23:02.986Z,51.69
2022-12-19T07:25:04.290Z,51.53
2022-12-19T07:27:08.382Z,51.66
2022-12-19T07:29:12.695Z,51.37
2022-12-19T07:31:14.042Z,51.96
2022-12-19T07:33:21.051Z,52.04
2022-12-19T07:35:23.142Z,51.93
2022-12-19T07:37:24.486Z,52.14
2022-12-19T07:39:25.832Z,52.72
2022-12-19T07:41:27.300Z,52.11
2022-12-19T07:43:28.596Z,52.38
2022-12-19T07:45:30.138Z,52.57
2022-12-19T07:47:31.474Z,53.15
2022-12-19T07:49:32.819Z,52.71
2022-12-19T07:51:34.120Z,52.90
2022-12-19T07:53:35.424Z,52.73
2022-12-19T07:55:36.755Z,52.68
2022-12-19T07:57:38.102Z,52.83
2022-12-19T07:59:39.624Z,52.72
2022-12-19T08:01:41.027Z,52.69
2022-12-19T08:03:42.394Z,53.18
2022-12-19T08:05:43.704Z,53.44
2022-12-19T08:07:47.660Z,53.33
2022-12-19T08:09:49.005Z,53.00
2022-12-19T08:11:50.346Z,53.06
2022-12-19T08:13:51.642Z,52.78
2022-12-19T08:15:53.242Z,52.51
2022-12-19T08:17:54.604Z,52.45
2022-12-19T08:19:56.035Z,51.40
2022-12-19T08:21:57.374Z,51.61
2022-12-19T08:23:58.699Z,51.00
2022-12-19T08:26:00.360Z,50.66
2022-12-19T08:28:01.707Z,50.77
2022-12-19T08:30:03.002Z,50.67
2022-12-19T08:32:04.332Z,50.91
2022-12-19T08:34:05.632Z,50.53
2022-12-19T08:36:06.968Z,50.42
2022-12-19T08:38:08.298Z,50.14
2022-12-19T08:40:09.631Z,50.01
2022-12-19T08:42:10.943Z,50.10
2022-12-19T08:44:13.186Z,49.76
2022-12-19T08:46:14.540Z,50.13
2022-12-19T08:48:15.913Z,50.12
2022-12-19T08:50:17.251Z,49.66
2022-12-19T08:52:18.670Z,49.77
2022-12-19T08:54:20.059Z,49.97
2022-12-19T08:56:21.732Z,49.81
2022-12-19T08:58:23.115Z,49.94
2022-12-19T09:00:24.833Z,49.94
2022-12-19T09:02:27.171Z,49.57
2022-12-19T09:06:02.383Z,49.66
2022-12-19T09:06:50.080Z,49.57
2022-12-19T09:08:51.450Z,49.72
2022-12-19T09:10:54.909Z,49.67
2022-12-19T09:12:57.754Z,49.93
2022-12-19T09:14:59.371Z,49.98
2022-12-19T09:17:00.804Z,49.78
2022-12-19T09:19:05.559Z,43.93
2022-12-19T09:21:06.942Z,39.91
2022-12-19T09:23:09.330Z,40.22
2022-12-19T09:25:11.065Z,38.61
2022-12-19T09:27:12.384Z,36.52
2022-12-19T09:29:20.508Z,35.54
2022-12-19T09:31:22.884Z,38.26
2022-12-19T09:33:24.292Z,38.39
2022-12-19T09:35:30.070Z,38.34
2022-12-19T09:37:31.903Z,38.56
2022-12-19T09:39:34.250Z,40.76
2022-12-19T09:41:35.845Z,40.18
2022-12-19T09:43:41.228Z,40.83
2022-12-19T09:45:42.909Z,41.67
2022-12-19T09:47:44.296Z,41.94
2022-12-19T09:49:45.610Z,42.48
2022-12-19T09:51:47.007Z,42.08
2022-12-19T09:53:53.377Z,42.92
2022-12-19T09:55:56.247Z,42.80
2022-12-19T09:57:57.635Z,42.21
2022-12-19T09:59:58.929Z,42.72
2022-12-19T10:02:00.349Z,42.71
2022-12-19T10:04:02.113Z,43.15
2022-12-19T10:06:58.113Z,43.17
2022-12-19T10:08:24.738Z,43.63
2022-12-19T10:12:40.846Z,43.64
2022-12-19T10:12:52.858Z,43.79
2022-12-19T10:14:56.172Z,43.95
2022-12-19T10:17:23.159Z,43.79
2022-12-19T10:19:18.754Z,44.18
2022-12-19T10:21:20.115Z,44.93
2022-12-19T10:23:21.605Z,44.98
2022-12-19T10:25:23.010Z,45.09
2022-12-19T10:27:24.325Z,45.47
2022-12-19T10:29:25.689Z,45.46
2022-12-19T10:31:27.100Z,45.59
2022-12-19T10:33:28.492Z,45.37
2022-12-19T10:35:29.788Z,45.37
2022-12-19T10:37:41.057Z,45.86
2022-12-19T10:39:46.849Z,45.80
2022-12-19T10:41:48.201Z,45.76
2022-12-19T10:43:49.600Z,45.66
2022-12-19T10:45:50.943Z,45.79
2022-12-19T10:47:52.349Z,45.74
2022-12-19T10:49:53.940Z,46.01
2022-12-19T10:51:55.303Z,45.99
2022-12-19T10:53:57.208Z,46.06
2022-12-19T10:55:58.617Z,46.08
2022-12-19T10:58:00.142Z,46.29
2022-12-19T11:00:01.595Z,46.31
2022-12-19T11:02:07.199Z,46.50
2022-12-19T11:04:11.770Z,46.53
2022-12-19T11:06:13.116Z,46.46
2022-12-19T11:08:14.721Z,46.29
2022-12-19T11:11:15.507Z,46.59
2022-12-19T11:16:42.865Z,46.51
2022-12-19T11:19:41.628Z,46.66
2022-12-19T11:24:38.757Z,46.61
2022-12-19T11:29:18.185Z,46.52
2022-12-19T11:29:30.270Z,46.59
2022-12-19T11:29:40.720Z,46.58
2022-12-19T11:30:37.985Z,46.17
2022-12-19T11:30:48.365Z,46.53
2022-12-19T11:33:49.477Z,46.78
2022-12-19T11:35:51.024Z,46.93
2022-12-19T11:37:55.534Z,47.01
2022-12-19T11:39:57.302Z,47.18
2022-12-19T11:41:58.623Z,47.24
2022-12-19T11:44:02.100Z,47.43
2022-12-19T11:46:03.477Z,47.35
2022-12-19T11:48:04.777Z,47.96
2022-12-19T11:50:06.073Z,47.60
2022-12-19T11:52:23.707Z,48.13
2022-12-19T11:54:31.628Z,48.15
2022-12-19T11:56:32.926Z,47.97
2022-12-19T11:58:34.291Z,48.45
2022-12-19T12:00:37.239Z,48.04
2022-12-19T12:02:38.548Z,48.36
2022-12-19T12:04:40.010Z,48.16
2022-12-19T12:06:42.279Z,48.39
2022-12-19T12:09:48.479Z,48.67
2022-12-19T12:17:36.128Z,48.52
2022-12-19T12:24:51.709Z,48.48
2022-12-19T12:25:50.300Z,48.99
2022-12-19T12:30:09.089Z,48.66
2022-12-19T12:31:13.772Z,48.90
2022-12-19T12:31:31.888Z,48.63
2022-12-19T12:31:45.496Z,48.27
2022-12-19T12:31:45.687Z,48.48
2022-12-19T12:31:57.752Z,48.36
2022-12-19T12:35:33.637Z,47.83
2022-12-19T12:35:41.441Z,47.96
2022-12-19T12:39:29.792Z,47.93
2022-12-19T12:41:53.072Z,47.87
2022-12-19T12:43:54.477Z,47.78
2022-12-19T12:45:55.852Z,47.51
2022-12-19T12:47:57.185Z,47.80
2022-12-19T12:50:01.436Z,47.71
2022-12-19T12:52:02.854Z,47.63
2022-12-19T12:54:10.383Z,47.82
2022-12-19T12:56:11.715Z,47.88
2022-12-19T12:58:15.302Z,48.01
2022-12-19T13:00:19.269Z,47.93
2022-12-19T13:02:20.806Z,48.14
2022-12-19T13:04:22.356Z,48.42
2022-12-19T13:06:23.959Z,48.00
2022-12-19T13:08:25.391Z,48.18
2022-12-19T13:10:26.774Z,48.23
2022-12-19T13:12:46.979Z,47.97
2022-12-19T13:14:49.046Z,47.77
2022-12-19T13:16:50.436Z,47.81
2022-12-19T13:18:51.750Z,47.29
2022-12-19T13:20:53.080Z,47.27
2022-12-19T13:22:54.379Z,47.42
2022-12-19T13:24:55.679Z,47.13
2022-12-19T13:26:57.005Z,47.19
2022-12-19T13:28:58.292Z,46.82
2022-12-19T13:31:19.208Z,46.66
2022-12-19T13:33:20.928Z,46.56
2022-12-19T13:36:59.599Z,46.93
2022-12-19T13:39:56.273Z,46.57
2022-12-19T13:40:12.081Z,46.31
2022-12-19T13:42:32.729Z,46.59
2022-12-19T13:44:34.062Z,45.85
2022-12-19T13:46:35.394Z,46.00
2022-12-19T13:48:36.787Z,45.83
2022-12-19T13:50:38.137Z,45.88
2022-12-19T13:52:39.459Z,45.90
2022-12-19T13:54:40.783Z,46.10
2022-12-19T13:56:42.111Z,46.11
2022-12-19T13:58:43.413Z,45.97
2022-12-19T14:00:50.324Z,46.08
2022-12-19T14:02:54.905Z,45.88
2022-12-19T14:04:56.399Z,45.77
2022-12-19T14:06:57.701Z,46.18
2022-12-19T14:09:25.136Z,45.91
2022-12-19T14:11:41.099Z,46.26
2022-12-19T14:14:08.268Z,45.99
2022-12-19T14:16:14.448Z,46.40
2022-12-19T14:18:45.418Z,46.43
2022-12-19T14:22:03.939Z,46.13
2022-12-19T14:22:58.451Z,46.43
2022-12-19T14:25:44.057Z,46.44
2022-12-19T14:28:25.899Z,46.35
2022-12-19T14:30:26.260Z,46.51
2022-12-19T14:33:40.419Z,46.40
2022-12-19T14:36:48.901Z,46.41
2022-12-19T14:39:24.087Z,46.62
2022-12-19T14:41:31.639Z,46.46
2022-12-19T14:43:59.897Z,46.50
2022-12-19T14:52:25.848Z,46.71
2022-12-19T14:54:12.265Z,46.60
2022-12-19T14:54:15.726Z,46.63
2022-12-19T14:54:30.494Z,46.41
2022-12-19T14:56:13.644Z,46.68
2022-12-19T14:58:54.201Z,46.31
2022-12-19T15:00:08.712Z,46.42
2022-12-19T15:02:33.352Z,46.13
2022-12-19T15:04:51.449Z,45.91
2022-12-19T15:07:09.248Z,46.25
2022-12-19T15:10:58.685Z,46.05
2022-12-19T15:12:04.441Z,46.03
2022-12-19T15:14:56.894Z,46.04
2022-12-19T15:16:36.198Z,45.72
2022-12-19T15:18:38.280Z,45.94
2022-12-19T15:20:39.588Z,46.00
2022-12-19T15:22:40.891Z,45.88
2022-12-19T15:24:48.320Z,45.81
2022-12-19T15:26:49.607Z,45.97
2022-12-19T15:28:50.991Z,46.04
2022-12-19T15:30:52.459Z,46.03
2022-12-19T15:32:53.776Z,46.13
2022-12-19T15:34:55.559Z,45.70
2022-12-19T15:36:59.515Z,45.84
2022-12-19T15:39:00.825Z,45.62
2022-12-19T15:41:14.077Z,45.97
2022-12-19T15:43:53.089Z,45.82
2022-12-19T15:45:37.224Z,45.47
2022-12-19T15:47:38.690Z,45.88
2022-12-19T15:49:39.991Z,45.57
2022-12-19T15:51:41.285Z,45.52
2022-12-19T15:53:43.469Z,45.80
2022-12-19T15:55:44.837Z,45.77
2022-12-19T15:57:46.251Z,45.74
2022-12-19T15:59:47.563Z,45.60
2022-12-19T16:01:49.087Z,45.78
2022-12-19T16:03:50.926Z,45.64
2022-12-19T16:05:52.550Z,45.96
2022-12-19T16:07:54.411Z,45.70
2022-12-19T16:09:55.783Z,45.95
2022-12-19T16:11:58.129Z,45.85
2022-12-19T16:13:59.530Z,45.70
2022-12-19T16:16:00.904Z,45.76
2022-12-19T16:18:02.996Z,45.87
2022-12-19T16:20:04.326Z,45.85
2022-12-19T16:22:05.608Z,45.83
2022-12-19T16:24:06.946Z,45.86
2022-12-19T16:26:08.243Z,45.91
2022-12-19T16:28:09.635Z,45.69
2022-12-19T16:30:18.152Z,45.85
2022-12-19T16:32:20.143Z,45.53
2022-12-19T16:34:22.470Z,45.43
2022-12-19T16:36:23.820Z,45.88
2022-12-19T16:38:28.130Z,45.80
2022-12-19T16:40:32.379Z,45.81
2022-12-19T16:42:33.759Z,45.94
2022-12-19T16:44:35.876Z,45.78
2022-12-19T16:46:37.245Z,45.60
2022-12-19T16:48:38.777Z,45.68
2022-12-19T16:50:40.127Z,45.42
2022-12-19T16:52:42.882Z,45.58
2022-12-19T16:54:44.304Z,45.74
2022-12-19T16:56:48.505Z,45.76
2022-12-19T16:58:55.931Z,45.50
2022-12-19T17:00:57.259Z,45.56
2022-12-19T17:02:58.929Z,45.48
2022-12-19T17:05:00.361Z,45.69
2022-12-19T17:07:01.650Z,45.73
2022-12-19T17:09:03.021Z,45.91
2022-12-19T17:11:05.082Z,45.89
2022-12-19T17:13:06.415Z,45.96
2022-12-19T17:15:07.957Z,46.04
2022-12-19T17:17:09.305Z,46.19
2022-12-19T17:19:13.323Z,46.54
2022-12-19T17:21:14.692Z,46.51
2022-12-19T17:23:15.996Z,46.37
2022-12-19T17:25:17.307Z,46.24
2022-12-19T17:27:19.315Z,46.26
2022-12-19T17:29:20.702Z,46.13
2022-12-19T17:31:22.103Z,46.02
2022-12-19T17:33:29.770Z,45.67
2022-12-19T17:35:31.106Z,45.47
2022-12-19T17:37:32.463Z,45.39
2022-12-19T17:39:33.760Z,45.44
2022-12-19T17:41:35.081Z,45.41
2022-12-19T17:43:36.477Z,45.26
2022-12-19T17:45:40.699Z,45.40
2022-12-19T17:47:42.160Z,45.09
2022-12-19T17:49:43.593Z,44.92
2022-12-19T17:51:44.891Z,44.96
2022-12-19T17:53:46.207Z,44.84
2022-12-19T17:55:47.546Z,44.55
2022-12-19T17:57:48.879Z,44.74
2022-12-19T17:59:50.237Z,44.60
2022-12-19T18:01:51.758Z,44.51
2022-12-19T18:03:53.204Z,44.37
2022-12-19T18:05:54.523Z,44.30
2022-12-19T18:07:55.877Z,43.74
2022-12-19T18:09:57.187Z,43.94
2022-12-19T18:11:58.575Z,44.13
2022-12-19T18:13:59.958Z,43.92
2022-12-19T18:16:04.037Z,43.84
2022-12-19T18:18:11.242Z,44.17
2022-12-19T18:20:12.890Z,43.93
2022-12-19T18:22:14.285Z,43.85
2022-12-19T18:24:16.713Z,44.08
2022-12-19T18:26:18.117Z,44.26
2022-12-19T18:28:19.415Z,44.09
2022-12-19T18:30:23.635Z,44.16
2022-12-19T18:32:25.647Z,44.12
2022-12-19T18:34:26.960Z,44.03
2022-12-19T18:36:28.297Z,44.12
2022-12-19T18:38:29.683Z,43.99
2022-12-19T18:40:32.114Z,44.25
2022-12-19T18:42:33.548Z,44.28
2022-12-19T18:44:34.890Z,44.00
2022-12-19T18:46:39.546Z,44.22
2022-12-19T18:48:40.906Z,44.34
2022-12-19T18:50:42.495Z,43.80
2022-12-19T18:52:43.787Z,43.95
2022-12-19T18:54:45.137Z,44.31
2022-12-19T18:56:46.476Z,44.26
2022-12-19T18:58:48.575Z,44.21
2022-12-19T19:00:54.165Z,44.16
2022-12-19T19:02:58.866Z,44.15
2022-12-19T19:05:03.090Z,44.12
2022-12-19T19:07:04.459Z,44.26
2022-12-19T19:09:08.837Z,44.21
2022-12-19T19:11:10.347Z,44.20
2022-12-19T19:13:11.684Z,44.23
2022-12-19T19:15:13.011Z,44.61
2022-12-19T19:17:14.361Z,44.35
2022-12-19T19:19:16.685Z,44.41
2022-12-19T19:21:20.049Z,44.21
2022-12-19T19:23:21.388Z,43.92
2022-12-19T19:25:22.773Z,44.00
2022-12-19T19:27:24.101Z,43.71
2022-12-19T19:29:25.449Z,44.05
2022-12-19T19:31:26.851Z,44.03
2022-12-19T19:33:28.241Z,43.83
2022-12-19T19:35:29.530Z,44.28
2022-12-19T19:37:30.869Z,44.07
2022-12-19T19:39:32.205Z,44.41
2022-12-19T19:41:36.387Z,44.34
2022-12-19T19:43:37.722Z,44.04
2022-12-19T19:45:43.243Z,44.45
2022-12-19T19:47:45.068Z,44.41
2022-12-19T19:49:46.460Z,44.73
2022-12-19T19:51:47.743Z,44.74
2022-12-19T19:53:49.092Z,44.47
2022-12-19T19:55:50.390Z,44.24
2022-12-19T19:57:51.679Z,44.49
2022-12-19T19:59:53.047Z,44.83
2022-12-19T20:01:55.134Z,44.46
2022-12-19T20:03:59.717Z,45.07
2022-12-19T20:06:04.738Z,44.65
2022-12-19T20:08:06.568Z,44.55
2022-12-19T20:10:07.907Z,44.73
2022-12-19T20:12:09.214Z,44.45
2022-12-19T20:14:10.507Z,44.47
2022-12-19T20:16:12.005Z,44.80
2022-12-19T20:18:13.358Z,44.58
2022-12-19T20:20:14.699Z,44.97
2022-12-19T20:22:16.022Z,44.91
2022-12-19T20:24:17.339Z,44.74
2022-12-19T20:26:18.707Z,44.98
2022-12-19T20:28:20.055Z,44.77
2022-12-19T20:30:21.419Z,44.87
2022-12-19T20:32:22.776Z,44.88
2022-12-19T20:34:26.679Z,45.16
2022-12-19T20:36:28.022Z,44.90
2022-12-19T20:38:29.337Z,44.55
2022-12-19T20:40:30.651Z,45.07
2022-12-19T20:42:32.008Z,44.99
2022-12-19T20:44:33.321Z,45.22
2022-12-19T20:46:34.677Z,45.11
2022-12-19T20:48:42.104Z,44.75
2022-12-19T20:50:43.550Z,45.03
2022-12-19T20:52:44.868Z,44.44
2022-12-19T20:54:46.205Z,44.71
2022-12-19T20:56:47.550Z,44.97
2022-12-19T20:58:48.936Z,44.79
2022-12-19T21:00:50.265Z,44.99
2022-12-19T21:03:26.308Z,44.62
2022-12-19T21:05:13.025Z,44.81
2022-12-19T21:07:14.805Z,44.84
2022-12-19T21:09:16.248Z,44.96
2022-12-19T21:11:17.717Z,44.68
2022-12-19T21:13:19.151Z,44.87
2022-12-19T21:15:20.509Z,44.72
2022-12-19T21:17:21.825Z,44.77
2022-12-19T21:19:23.364Z,44.92
2022-12-19T21:21:24.838Z,44.82
2022-12-19T21:23:26.219Z,45.00
2022-12-19T21:25:27.603Z,44.63
2022-12-19T21:27:28.930Z,44.64
2022-12-19T21:29:30.449Z,44.69
2022-12-19T21:31:31.992Z,44.96
2022-12-19T21:33:33.444Z,44.89
2022-12-19T21:35:34.772Z,45.01
2022-12-19T21:37:43.175Z,44.74
2022-12-19T21:39:44.911Z,44.90
2022-12-19T21:41:46.245Z,44.83
2022-12-19T21:43:47.629Z,45.14
2022-12-19T21:45:48.966Z,44.94
2022-12-19T21:47:50.704Z,44.68
2022-12-19T21:49:51.998Z,45.05
2022-12-19T21:51:53.396Z,45.06
2022-12-19T21:53:55.238Z,44.82
2022-12-19T21:55:56.522Z,44.99
2022-12-19T21:57:57.896Z,45.09
2022-12-19T21:59:59.199Z,45.25
2022-12-19T22:02:00.713Z,45.24
2022-12-19T22:04:02.334Z,45.03
2022-12-19T22:06:04.761Z,45.25
2022-12-19T22:08:06.085Z,45.18
2022-12-19T22:10:07.419Z,45.16
2022-12-19T22:12:08.803Z,45.19
2022-12-19T22:14:10.142Z,45.34
2022-12-19T22:16:11.482Z,45.41
2022-12-19T22:18:12.945Z,44.96
2022-12-19T22:20:14.283Z,45.38
2022-12-19T22:22:15.591Z,45.09
2022-12-19T22:24:16.947Z,45.22
2022-12-19T22:26:20.914Z,45.23
2022-12-19T22:28:22.214Z,45.35
2022-12-19T22:30:23.562Z,45.48
2022-12-19T22:32:24.900Z,45.53
2022-12-19T22:34:26.238Z,45.95
2022-12-19T22:36:28.662Z,41.50
2022-12-19T22:38:30.261Z,41.18
2022-12-19T22:40:33.133Z,42.85
2022-12-19T22:42:34.458Z,42.46
2022-12-19T22:44:35.818Z,42.33
2022-12-19T22:46:37.161Z,41.98
2022-12-19T22:48:38.492Z,42.39
2022-12-19T22:50:39.787Z,42.36
2022-12-19T22:52:41.157Z,42.67
2022-12-19T22:54:42.464Z,43.18
2022-12-19T22:56:43.881Z,43.05
2022-12-19T22:58:45.238Z,44.03
2022-12-19T23:00:46.545Z,43.65
2022-12-19T23:02:48.108Z,44.32
2022-12-19T23:04:50.460Z,44.26
2022-12-19T23:06:51.775Z,43.90
2022-12-19T23:08:53.066Z,43.98
2022-12-19T23:10:54.509Z,44.45
2022-12-19T23:12:55.834Z,44.40
2022-12-19T23:14:57.147Z,44.38
2022-12-19T23:16:58.480Z,44.51
2022-12-19T23:18:59.949Z,44.61
2022-12-19T23:23:02.645Z,44.66
2022-12-19T23:25:03.986Z,44.29
2022-12-19T23:27:05.331Z,45.11
2022-12-19T23:29:06.651Z,44.98
2022-12-19T23:31:08.022Z,44.89
2022-12-19T23:33:09.312Z,46.24
2022-12-19T23:35:10.604Z,45.39
2022-12-19T23:37:12.796Z,45.52
2022-12-19T23:39:14.363Z,45.49
2022-12-19T23:41:15.694Z,45.61
2022-12-19T23:43:17.104Z,45.60
2022-12-19T23:45:18.611Z,46.06
2022-12-19T23:47:20.027Z,45.90
2022-12-19T23:49:21.315Z,46.19
2022-12-19T23:51:22.624Z,46.66
2022-12-19T23:53:23.943Z,46.48
2022-12-19T23:55:25.396Z,46.87
2022-12-19T23:57:26.744Z,46.53
2022-12-19T23:59:28.103Z,47.91
